CheckWX is a tool to help pilots better visualize weather data.  It is not intended as a substitute for an official pre-flight weather briefing.

15:23:32 UTC

EFSA METAR
Savonlinna Airport
Savonlinna, Finland
Current

34 mins ago

EFSA 201450Z 10010KT CAVOK 16/03 Q1017
Observed
May-20 @ 14:50 UTC
Wind
  • 100° at 10 KTS
Visibility
10,000+ meters
Flight Rules
VFR
Cloud Levels
  • Clear skies
Temperature
16°C / 61°F
Dewpoint
C / 37°F
Humidity
42%
Altimeter
30.03" Hg
Pressure
1016.92 hPa
Previous

1 hour ago

EFSA 201420Z AUTO 11011KT 080V140 CAVOK 16/03 Q1018
Observed
May-20 @ 14:20 UTC
Wind
  • 110° at 11 KTS
Visibility
10,000+ meters
Flight Rules
VFR
Cloud Levels
  • Clear skies
Temperature
16°C / 61°F
Dewpoint
C / 37°F
Humidity
42%
Altimeter
30.06" Hg
Pressure
1017.92 hPa
Previous

2 hours ago

EFSA 201350Z AUTO 11011KT 080V150 CAVOK 16/02 Q1018
Observed
May-20 @ 13:50 UTC
Wind
  • 110° at 11 KTS
Visibility
10,000+ meters
Flight Rules
VFR
Cloud Levels
  • Clear skies
Temperature
16°C / 61°F
Dewpoint
C / 36°F
Humidity
39%
Altimeter
30.06" Hg
Pressure
1017.92 hPa